sensor_id;sensor_type;location;lat;lon;timestamp;pressure;altitude;pressure_sealevel;temperature;humidity
62524;BME280;53689;56.878;60.672;2023-04-25T00:01:12;98456.25;;;22.94;25.98
62524;BME280;53689;56.878;60.672;2023-04-25T00:03:40;98453.38;;;22.95;25.87
62524;BME280;53689;56.878;60.672;2023-04-25T00:06:08;98467.72;;;22.96;26.41
62524;BME280;53689;56.878;60.672;2023-04-25T00:08:35;98461.47;;;22.95;26.00
62524;BME280;53689;56.878;60.672;2023-04-25T00:11:05;98452.13;;;22.98;26.29
62524;BME280;53689;56.878;60.672;2023-04-25T00:13:32;98469.56;;;22.95;26.19
62524;BME280;53689;56.878;60.672;2023-04-25T00:16:00;98462.72;;;22.99;25.46
62524;BME280;53689;56.878;60.672;2023-04-25T00:18:27;98461.47;;;22.95;26.12
62524;BME280;53689;56.878;60.672;2023-04-25T00:20:55;98462.31;;;22.96;25.69
62524;BME280;53689;56.878;60.672;2023-04-25T00:23:23;98458.16;;;22.93;25.83
62524;BME280;53689;56.878;60.672;2023-04-25T00:25:50;98456.91;;;22.96;25.75
62524;BME280;53689;56.878;60.672;2023-04-25T00:28:19;98457.91;;;22.95;25.88
62524;BME280;53689;56.878;60.672;2023-04-25T00:30:47;98459.38;;;22.97;25.74
62524;BME280;53689;56.878;60.672;2023-04-25T00:33:14;98458.16;;;23.00;25.22
62524;BME280;53689;56.878;60.672;2023-04-25T00:35:42;98463.38;;;23.02;25.28
62524;BME280;53689;56.878;60.672;2023-04-25T00:38:09;98464.59;;;22.99;25.50
62524;BME280;53689;56.878;60.672;2023-04-25T00:40:37;98472.50;;;23.00;25.38
62524;BME280;53689;56.878;60.672;2023-04-25T00:43:04;98471.66;;;23.00;25.21
62524;BME280;53689;56.878;60.672;2023-04-25T00:45:37;98468.34;;;22.98;25.00
62524;BME280;53689;56.878;60.672;2023-04-25T00:48:05;98478.09;;;22.99;25.11
62524;BME280;53689;56.878;60.672;2023-04-25T00:50:34;98484.53;;;22.98;25.48
62524;BME280;53689;56.878;60.672;2023-04-25T00:53:02;98489.72;;;22.99;25.00
62524;BME280;53689;56.878;60.672;2023-04-25T00:55:30;98495.97;;;23.00;25.13
62524;BME280;53689;56.878;60.672;2023-04-25T00:57:58;98482.66;;;22.98;24.89
62524;BME280;53689;56.878;60.672;2023-04-25T01:00:26;98483.09;;;23.02;25.53
62524;BME280;53689;56.878;60.672;2023-04-25T01:02:55;98487.66;;;23.02;24.80
62524;BME280;53689;56.878;60.672;2023-04-25T01:05:23;98487.66;;;23.02;24.95
62524;BME280;53689;56.878;60.672;2023-04-25T01:07:50;98490.16;;;23.03;24.50
62524;BME280;53689;56.878;60.672;2023-04-25T01:10:19;98485.78;;;23.02;24.82
62524;BME280;53689;56.878;60.672;2023-04-25T01:12:46;98493.88;;;23.02;24.71
62524;BME280;53689;56.878;60.672;2023-04-25T01:15:15;98489.75;;;23.06;25.00
62524;BME280;53689;56.878;60.672;2023-04-25T01:17:42;98494.31;;;23.06;24.82
62524;BME280;53689;56.878;60.672;2023-04-25T01:20:13;98495.38;;;23.11;24.95
62524;BME280;53689;56.878;60.672;2023-04-25T01:22:43;98494.38;;;23.19;23.98
62524;BME280;53689;56.878;60.672;2023-04-25T01:25:11;98497.47;;;23.23;24.50
62524;BME280;53689;56.878;60.672;2023-04-25T01:27:39;98504.16;;;23.27;24.17
62524;BME280;53689;56.878;60.672;2023-04-25T01:30:08;98505.81;;;23.21;23.88
62524;BME280;53689;56.878;60.672;2023-04-25T01:32:37;98501.03;;;23.23;24.09
62524;BME280;53689;56.878;60.672;2023-04-25T01:35:07;98504.97;;;23.21;24.33
62524;BME280;53689;56.878;60.672;2023-04-25T01:37:35;98505.19;;;23.26;24.89
62524;BME280;53689;56.878;60.672;2023-04-25T01:40:05;98510.19;;;23.22;24.57
62524;BME280;53689;56.878;60.672;2023-04-25T01:42:35;98511.00;;;23.23;24.82
62524;BME280;53689;56.878;60.672;2023-04-25T01:45:04;98515.63;;;23.29;24.20
62524;BME280;53689;56.878;60.672;2023-04-25T01:47:32;98513.78;;;23.30;24.10
62524;BME280;53689;56.878;60.672;2023-04-25T01:50:00;98509.38;;;23.28;23.60
62524;BME280;53689;56.878;60.672;2023-04-25T01:52:29;98513.53;;;23.31;23.27
62524;BME280;53689;56.878;60.672;2023-04-25T01:54:57;98519.38;;;23.28;23.40
62524;BME280;53689;56.878;60.672;2023-04-25T01:57:27;98520.34;;;23.20;23.96
62524;BME280;53689;56.878;60.672;2023-04-25T01:59:58;98519.09;;;23.23;23.52
62524;BME280;53689;56.878;60.672;2023-04-25T02:02:38;98520.13;;;23.22;24.18
62524;BME280;53689;56.878;60.672;2023-04-25T02:05:16;98521.03;;;23.29;23.10
62524;BME280;53689;56.878;60.672;2023-04-25T02:07:44;98530.31;;;23.26;23.25
62524;BME280;53689;56.878;60.672;2023-04-25T02:10:12;98530.94;;;23.22;23.23
62524;BME280;53689;56.878;60.672;2023-04-25T02:12:55;98535.72;;;23.20;23.29
62524;BME280;53689;56.878;60.672;2023-04-25T02:15:39;98538.22;;;23.21;23.33
62524;BME280;53689;56.878;60.672;2023-04-25T02:18:15;98539.53;;;23.32;22.82
62524;BME280;53689;56.878;60.672;2023-04-25T02:20:43;98544.09;;;23.32;23.09
62524;BME280;53689;56.878;60.672;2023-04-25T02:23:11;98547.63;;;23.32;23.03
62524;BME280;53689;56.878;60.672;2023-04-25T02:25:38;98556.78;;;23.38;22.26
62524;BME280;53689;56.878;60.672;2023-04-25T02:28:08;98552.72;;;23.13;23.42
62524;BME280;53689;56.878;60.672;2023-04-25T02:30:36;98553.63;;;22.85;23.98
62524;BME280;53689;56.878;60.672;2023-04-25T02:33:04;98552.50;;;23.08;24.16
62524;BME280;53689;56.878;60.672;2023-04-25T02:35:32;98557.72;;;23.17;22.96
62524;BME280;53689;56.878;60.672;2023-04-25T02:38:00;98545.28;;;23.16;22.87
62524;BME280;53689;56.878;60.672;2023-04-25T02:40:28;98564.31;;;23.00;23.59
62524;BME280;53689;56.878;60.672;2023-04-25T02:42:55;98564.50;;;22.99;23.26
62524;BME280;53689;56.878;60.672;2023-04-25T02:45:27;98571.31;;;22.95;23.24
62524;BME280;53689;56.878;60.672;2023-04-25T02:47:55;98574.25;;;23.00;23.14
62524;BME280;53689;56.878;60.672;2023-04-25T02:50:23;98568.47;;;23.03;23.60
62524;BME280;53689;56.878;60.672;2023-04-25T02:52:50;98570.53;;;23.01;23.97
62524;BME280;53689;56.878;60.672;2023-04-25T02:55:24;98565.97;;;23.02;23.23
62524;BME280;53689;56.878;60.672;2023-04-25T02:57:55;98572.88;;;23.11;22.85
62524;BME280;53689;56.878;60.672;2023-04-25T03:00:37;98567.25;;;23.12;23.65
62524;BME280;53689;56.878;60.672;2023-04-25T03:03:05;98574.00;;;22.95;23.51
62524;BME280;53689;56.878;60.672;2023-04-25T03:05:32;98571.28;;;22.88;23.21
62524;BME280;53689;56.878;60.672;2023-04-25T03:08:00;98576.09;;;22.93;23.43
62524;BME280;53689;56.878;60.672;2023-04-25T03:10:28;98576.25;;;22.49;23.32
62524;BME280;53689;56.878;60.672;2023-04-25T03:13:00;98573.00;;;22.61;24.47
62524;BME280;53689;56.878;60.672;2023-04-25T03:15:28;98579.53;;;22.80;24.22
62524;BME280;53689;56.878;60.672;2023-04-25T03:17:57;98578.31;;;22.82;23.98
62524;BME280;53689;56.878;60.672;2023-04-25T03:20:24;98579.66;;;23.00;23.01
62524;BME280;53689;56.878;60.672;2023-04-25T03:22:52;98579.03;;;22.98;23.85
62524;BME280;53689;56.878;60.672;2023-04-25T03:25:19;98586.53;;;23.03;23.28
62524;BME280;53689;56.878;60.672;2023-04-25T03:27:47;98584.94;;;23.15;22.95
62524;BME280;53689;56.878;60.672;2023-04-25T03:30:14;98588.03;;;23.12;23.64
62524;BME280;53689;56.878;60.672;2023-04-25T03:32:43;98593.47;;;23.19;23.20
62524;BME280;53689;56.878;60.672;2023-04-25T03:35:17;98583.72;;;23.18;23.19
62524;BME280;53689;56.878;60.672;2023-04-25T03:37:45;98588.63;;;23.07;22.77
62524;BME280;53689;56.878;60.672;2023-04-25T03:40:18;98583.50;;;22.77;24.07
62524;BME280;53689;56.878;60.672;2023-04-25T03:43:08;98590.78;;;22.83;24.31
62524;BME280;53689;56.878;60.672;2023-04-25T03:45:37;98585.34;;;23.12;22.59
62524;BME280;53689;56.878;60.672;2023-04-25T03:48:05;98589.69;;;23.06;24.08
62524;BME280;53689;56.878;60.672;2023-04-25T03:50:34;98589.22;;;22.96;23.43
62524;BME280;53689;56.878;60.672;2023-04-25T03:53:02;98589.91;;;22.76;23.88
62524;BME280;53689;56.878;60.672;2023-04-25T03:55:39;98594.13;;;22.57;24.15
62524;BME280;53689;56.878;60.672;2023-04-25T03:58:09;98588.53;;;22.87;24.12
62524;BME280;53689;56.878;60.672;2023-04-25T04:00:37;98595.63;;;22.95;23.81
62524;BME280;53689;56.878;60.672;2023-04-25T04:03:05;98590.53;;;23.13;22.10
62524;BME280;53689;56.878;60.672;2023-04-25T04:05:34;98592.63;;;23.18;22.53
62524;BME280;53689;56.878;60.672;2023-04-25T04:08:02;98592.25;;;23.21;23.04
62524;BME280;53689;56.878;60.672;2023-04-25T04:10:31;98604.91;;;23.21;22.42
62524;BME280;53689;56.878;60.672;2023-04-25T04:12:58;98598.72;;;23.27;22.01
62524;BME280;53689;56.878;60.672;2023-04-25T04:15:26;98600.94;;;23.17;23.26
62524;BME280;53689;56.878;60.672;2023-04-25T04:17:54;98601.53;;;23.12;22.83
62524;BME280;53689;56.878;60.672;2023-04-25T04:20:22;98602.59;;;23.18;22.95
62524;BME280;53689;56.878;60.672;2023-04-25T04:22:51;98603.84;;;23.15;22.51
62524;BME280;53689;56.878;60.672;2023-04-25T04:25:19;98601.97;;;23.16;22.43
62524;BME280;53689;56.878;60.672;2023-04-25T04:28:09;98612.03;;;22.93;23.95
62524;BME280;53689;56.878;60.672;2023-04-25T04:30:48;98612.91;;;23.00;24.07
62524;BME280;53689;56.878;60.672;2023-04-25T04:33:15;98602.88;;;22.88;23.74
62524;BME280;53689;56.878;60.672;2023-04-25T04:35:45;98608.97;;;22.46;24.12
62524;BME280;53689;56.878;60.672;2023-04-25T04:38:15;98601.09;;;22.23;24.51
62524;BME280;53689;56.878;60.672;2023-04-25T04:40:42;98601.88;;;22.67;24.93
62524;BME280;53689;56.878;60.672;2023-04-25T04:43:18;98601.31;;;23.13;24.43
62524;BME280;53689;56.878;60.672;2023-04-25T04:46:07;98601.53;;;23.05;24.45
62524;BME280;53689;56.878;60.672;2023-04-25T04:48:55;98598.28;;;22.88;24.58
62524;BME280;53689;56.878;60.672;2023-04-25T04:51:45;98601.00;;;22.95;23.24
62524;BME280;53689;56.878;60.672;2023-04-25T04:54:34;98598.00;;;23.11;23.23
62524;BME280;53689;56.878;60.672;2023-04-25T04:57:32;98603.66;;;23.17;23.37
62524;BME280;53689;56.878;60.672;2023-04-25T05:00:15;98598.25;;;23.17;23.95
62524;BME280;53689;56.878;60.672;2023-04-25T05:03:12;98595.94;;;23.13;22.82
62524;BME280;53689;56.878;60.672;2023-04-25T05:05:53;98600.97;;;23.23;23.33
62524;BME280;53689;56.878;60.672;2023-04-25T05:08:38;98604.53;;;23.24;22.90
62524;BME280;53689;56.878;60.672;2023-04-25T05:11:19;98603.03;;;23.21;24.34
62524;BME280;53689;56.878;60.672;2023-04-25T05:14:10;98600.13;;;23.23;22.55
62524;BME280;53689;56.878;60.672;2023-04-25T05:16:46;98601.06;;;23.37;22.57
62524;BME280;53689;56.878;60.672;2023-04-25T05:19:24;98601.56;;;23.19;23.92
62524;BME280;53689;56.878;60.672;2023-04-25T05:22:12;98604.28;;;23.19;23.91
62524;BME280;53689;56.878;60.672;2023-04-25T05:25:00;98606.19;;;23.25;24.34
62524;BME280;53689;56.878;60.672;2023-04-25T05:27:51;98595.84;;;22.93;24.33
62524;BME280;53689;56.878;60.672;2023-04-25T05:30:28;98600.09;;;23.16;23.18
62524;BME280;53689;56.878;60.672;2023-04-25T05:33:06;98596.31;;;23.46;22.33
62524;BME280;53689;56.878;60.672;2023-04-25T05:35:33;98592.16;;;23.08;24.45
62524;BME280;53689;56.878;60.672;2023-04-25T05:38:01;98599.66;;;23.48;22.24
62524;BME280;53689;56.878;60.672;2023-04-25T05:40:47;98599.63;;;23.34;23.45
62524;BME280;53689;56.878;60.672;2023-04-25T05:43:43;98584.47;;;23.47;22.42
62524;BME280;53689;56.878;60.672;2023-04-25T05:46:22;98591.56;;;23.61;22.44
62524;BME280;53689;56.878;60.672;2023-04-25T05:49:10;98593.00;;;23.50;22.52
62524;BME280;53689;56.878;60.672;2023-04-25T05:51:52;98587.19;;;23.53;22.60
62524;BME280;53689;56.878;60.672;2023-04-25T05:54:55;98583.34;;;23.96;21.65
62524;BME280;53689;56.878;60.672;2023-04-25T05:57:24;98586.66;;;23.78;21.80
62524;BME280;53689;56.878;60.672;2023-04-25T05:59:55;98594.78;;;23.85;21.88
62524;BME280;53689;56.878;60.672;2023-04-25T06:02:39;98590.75;;;23.54;24.16
62524;BME280;53689;56.878;60.672;2023-04-25T06:05:08;98595.66;;;23.37;23.23
62524;BME280;53689;56.878;60.672;2023-04-25T06:07:36;98590.59;;;23.76;22.22
62524;BME280;53689;56.878;60.672;2023-04-25T06:10:05;98589.97;;;23.87;21.94
62524;BME280;53689;56.878;60.672;2023-04-25T06:12:33;98586.31;;;24.08;21.86
62524;BME280;53689;56.878;60.672;2023-04-25T06:15:05;98592.06;;;23.78;22.03
62524;BME280;53689;56.878;60.672;2023-04-25T06:17:53;98585.16;;;23.69;21.75
62524;BME280;53689;56.878;60.672;2023-04-25T06:20:20;98593.72;;;23.86;21.61
62524;BME280;53689;56.878;60.672;2023-04-25T06:22:49;98590.88;;;24.08;23.49
62524;BME280;53689;56.878;60.672;2023-04-25T06:25:17;98588.91;;;23.68;23.18
62524;BME280;53689;56.878;60.672;2023-04-25T06:27:44;98594.00;;;24.11;21.80
62524;BME280;53689;56.878;60.672;2023-04-25T06:30:14;98586.09;;;24.30;21.64
62524;BME280;53689;56.878;60.672;2023-04-25T06:32:42;98582.38;;;24.38;21.35
62524;BME280;53689;56.878;60.672;2023-04-25T06:35:10;98574.44;;;24.50;20.44
62524;BME280;53689;56.878;60.672;2023-04-25T06:37:37;98582.97;;;24.06;21.37
62524;BME280;53689;56.878;60.672;2023-04-25T06:40:06;98575.34;;;23.54;23.81
62524;BME280;53689;56.878;60.672;2023-04-25T06:42:34;98579.78;;;23.76;21.98
62524;BME280;53689;56.878;60.672;2023-04-25T06:45:23;98574.13;;;23.57;23.70
62524;BME280;53689;56.878;60.672;2023-04-25T06:47:52;98578.91;;;23.55;22.41
62524;BME280;53689;56.878;60.672;2023-04-25T06:50:21;98582.38;;;24.11;21.32
62524;BME280;53689;56.878;60.672;2023-04-25T06:52:48;98577.94;;;24.03;21.13
62524;BME280;53689;56.878;60.672;2023-04-25T06:55:17;98581.06;;;23.93;21.92
62524;BME280;53689;56.878;60.672;2023-04-25T06:58:05;98577.59;;;23.37;24.27
62524;BME280;53689;56.878;60.672;2023-04-25T07:00:53;98576.44;;;23.67;22.42
62524;BME280;53689;56.878;60.672;2023-04-25T07:03:23;98585.28;;;24.30;21.44
62524;BME280;53689;56.878;60.672;2023-04-25T07:05:55;98582.47;;;23.62;22.24
62524;BME280;53689;56.878;60.672;2023-04-25T07:08:23;98579.44;;;23.37;23.42
62524;BME280;53689;56.878;60.672;2023-04-25T07:10:51;98578.66;;;23.50;23.24
62524;BME280;53689;56.878;60.672;2023-04-25T07:13:19;98570.16;;;23.53;22.31
62524;BME280;53689;56.878;60.672;2023-04-25T07:15:46;98576.88;;;23.77;21.60
62524;BME280;53689;56.878;60.672;2023-04-25T07:18:16;98573.13;;;23.72;22.34
62524;BME280;53689;56.878;60.672;2023-04-25T07:20:43;98573.25;;;23.56;24.43
62524;BME280;53689;56.878;60.672;2023-04-25T07:23:12;98553.28;;;23.51;22.81
62524;BME280;53689;56.878;60.672;2023-04-25T07:25:39;98558.78;;;23.78;21.74
62524;BME280;53689;56.878;60.672;2023-04-25T07:28:08;98567.56;;;24.07;20.88
62524;BME280;53689;56.878;60.672;2023-04-25T07:30:36;98562.16;;;24.14;20.73
62524;BME280;53689;56.878;60.672;2023-04-25T07:33:04;98561.75;;;24.44;20.38
62524;BME280;53689;56.878;60.672;2023-04-25T07:35:33;98553.22;;;24.13;20.80
62524;BME280;53689;56.878;60.672;2023-04-25T07:38:01;98557.16;;;24.04;21.02
62524;BME280;53689;56.878;60.672;2023-04-25T07:40:29;98557.19;;;24.10;20.91
62524;BME280;53689;56.878;60.672;2023-04-25T07:43:04;98560.31;;;24.14;20.66
62524;BME280;53689;56.878;60.672;2023-04-25T07:45:46;98559.03;;;24.37;20.04
62524;BME280;53689;56.878;60.672;2023-04-25T07:48:16;98556.78;;;24.27;20.48
62524;BME280;53689;56.878;60.672;2023-04-25T07:50:45;98551.75;;;24.04;23.33
62524;BME280;53689;56.878;60.672;2023-04-25T07:53:14;98538.84;;;24.60;20.57
62524;BME280;53689;56.878;60.672;2023-04-25T07:55:51;98547.97;;;24.72;19.81
62524;BME280;53689;56.878;60.672;2023-04-25T07:58:20;98545.88;;;24.88;19.82
62524;BME280;53689;56.878;60.672;2023-04-25T08:00:52;98540.91;;;24.78;19.32
62524;BME280;53689;56.878;60.672;2023-04-25T08:03:42;98545.06;;;24.80;19.99
62524;BME280;53689;56.878;60.672;2023-04-25T08:06:19;98544.69;;;24.57;20.96
62524;BME280;53689;56.878;60.672;2023-04-25T08:08:56;98542.16;;;23.88;22.99
62524;BME280;53689;56.878;60.672;2023-04-25T08:11:31;98551.31;;;23.93;21.32
62524;BME280;53689;56.878;60.672;2023-04-25T08:13:59;98552.16;;;24.01;22.89
62524;BME280;53689;56.878;60.672;2023-04-25T08:16:27;98545.06;;;23.73;23.12
62524;BME280;53689;56.878;60.672;2023-04-25T08:18:56;98543.25;;;24.47;20.27
62524;BME280;53689;56.878;60.672;2023-04-25T08:21:25;98535.97;;;24.07;21.75
62524;BME280;53689;56.878;60.672;2023-04-25T08:23:54;98539.03;;;23.84;21.24
62524;BME280;53689;56.878;60.672;2023-04-25T08:26:28;98536.38;;;24.18;20.76
62524;BME280;53689;56.878;60.672;2023-04-25T08:28:57;98541.34;;;24.28;21.56
62524;BME280;53689;56.878;60.672;2023-04-25T08:31:25;98538.00;;;23.98;21.82
62524;BME280;53689;56.878;60.672;2023-04-25T08:33:57;98536.75;;;23.94;21.47
62524;BME280;53689;56.878;60.672;2023-04-25T08:36:46;98531.34;;;23.81;22.31
62524;BME280;53689;56.878;60.672;2023-04-25T08:39:22;98528.00;;;23.79;22.29
62524;BME280;53689;56.878;60.672;2023-04-25T08:42:15;98531.59;;;24.13;21.27
62524;BME280;53689;56.878;60.672;2023-04-25T08:44:44;98528.44;;;24.23;20.58
62524;BME280;53689;56.878;60.672;2023-04-25T08:47:12;98527.44;;;24.10;21.04
62524;BME280;53689;56.878;60.672;2023-04-25T08:49:49;98536.78;;;24.35;21.05
62524;BME280;53689;56.878;60.672;2023-04-25T08:52:24;98536.94;;;24.60;20.29
62524;BME280;53689;56.878;60.672;2023-04-25T08:54:55;98542.19;;;24.08;21.11
62524;BME280;53689;56.878;60.672;2023-04-25T08:57:25;98542.81;;;24.44;19.80
62524;BME280;53689;56.878;60.672;2023-04-25T08:59:54;98535.50;;;24.58;20.26
62524;BME280;53689;56.878;60.672;2023-04-25T09:02:24;98536.75;;;24.62;19.67
62524;BME280;53689;56.878;60.672;2023-04-25T09:04:53;98531.09;;;24.84;19.38
62524;BME280;53689;56.878;60.672;2023-04-25T09:07:23;98533.44;;;24.53;20.14
62524;BME280;53689;56.878;60.672;2023-04-25T09:09:51;98536.94;;;24.60;19.63
62524;BME280;53689;56.878;60.672;2023-04-25T09:12:21;98533.88;;;24.36;20.74
62524;BME280;53689;56.878;60.672;2023-04-25T09:15:04;98545.94;;;24.34;20.23
62524;BME280;53689;56.878;60.672;2023-04-25T09:17:54;98540.09;;;24.57;20.43
62524;BME280;53689;56.878;60.672;2023-04-25T09:20:22;98534.22;;;24.87;19.78
62524;BME280;53689;56.878;60.672;2023-04-25T09:23:01;98539.03;;;24.78;20.68
62524;BME280;53689;56.878;60.672;2023-04-25T09:25:34;98537.09;;;24.99;19.69
62524;BME280;53689;56.878;60.672;2023-04-25T09:28:04;98535.25;;;24.86;20.25
62524;BME280;53689;56.878;60.672;2023-04-25T09:30:34;98519.22;;;24.85;19.42
62524;BME280;53689;56.878;60.672;2023-04-25T09:33:28;98531.75;;;24.59;19.72
62524;BME280;53689;56.878;60.672;2023-04-25T09:36:02;98532.91;;;25.10;19.56
62524;BME280;53689;56.878;60.672;2023-04-25T09:38:52;98531.34;;;24.55;20.19
62524;BME280;53689;56.878;60.672;2023-04-25T09:41:32;98530.09;;;24.64;20.05
62524;BME280;53689;56.878;60.672;2023-04-25T09:44:01;98517.13;;;24.93;20.30
62524;BME280;53689;56.878;60.672;2023-04-25T09:46:36;98526.84;;;25.15;19.38
62524;BME280;53689;56.878;60.672;2023-04-25T09:49:08;98525.34;;;25.19;18.90
62524;BME280;53689;56.878;60.672;2023-04-25T09:51:54;98520.06;;;24.72;19.39
62524;BME280;53689;56.878;60.672;2023-04-25T09:54:23;98525.25;;;25.32;18.97
62524;BME280;53689;56.878;60.672;2023-04-25T09:57:02;98526.75;;;24.62;19.84
62524;BME280;53689;56.878;60.672;2023-04-25T09:59:38;98518.97;;;24.93;19.60
62524;BME280;53689;56.878;60.672;2023-04-25T10:02:08;98523.16;;;24.75;20.07
62524;BME280;53689;56.878;60.672;2023-04-25T10:04:38;98524.25;;;25.27;19.33
62524;BME280;53689;56.878;60.672;2023-04-25T10:07:19;98517.97;;;24.87;19.68
62524;BME280;53689;56.878;60.672;2023-04-25T10:09:49;98512.72;;;24.99;19.13
62524;BME280;53689;56.878;60.672;2023-04-25T10:12:17;98509.88;;;25.26;19.51
62524;BME280;53689;56.878;60.672;2023-04-25T10:14:45;98510.91;;;25.32;18.84
62524;BME280;53689;56.878;60.672;2023-04-25T10:17:14;98520.94;;;25.25;19.26
62524;BME280;53689;56.878;60.672;2023-04-25T10:19:42;98519.31;;;25.17;19.13
62524;BME280;53689;56.878;60.672;2023-04-25T10:22:14;98503.84;;;24.58;19.93
62524;BME280;53689;56.878;60.672;2023-04-25T10:24:48;98508.31;;;25.05;19.21
62524;BME280;53689;56.878;60.672;2023-04-25T10:27:17;98508.81;;;24.82;20.01
62524;BME280;53689;56.878;60.672;2023-04-25T10:30:00;98508.88;;;24.28;21.61
62524;BME280;53689;56.878;60.672;2023-04-25T10:32:27;98509.31;;;24.24;20.81
62524;BME280;53689;56.878;60.672;2023-04-25T10:34:57;98500.59;;;24.22;20.47
62524;BME280;53689;56.878;60.672;2023-04-25T10:37:26;98508.50;;;24.24;22.75
62524;BME280;53689;56.878;60.672;2023-04-25T10:39:56;98503.06;;;24.17;20.91
62524;BME280;53689;56.878;60.672;2023-04-25T10:42:24;98501.38;;;24.43;20.77
62524;BME280;53689;56.878;60.672;2023-04-25T10:45:01;98509.69;;;24.62;19.67
62524;BME280;53689;56.878;60.672;2023-04-25T10:47:35;98511.38;;;24.02;21.21
62524;BME280;53689;56.878;60.672;2023-04-25T10:50:05;98503.09;;;24.24;20.31
62524;BME280;53689;56.878;60.672;2023-04-25T10:52:33;98510.78;;;24.20;20.26
62524;BME280;53689;56.878;60.672;2023-04-25T10:55:03;98499.69;;;24.62;19.61
62524;BME280;53689;56.878;60.672;2023-04-25T10:57:36;98504.69;;;24.45;20.14
62524;BME280;53689;56.878;60.672;2023-04-25T11:00:10;98502.66;;;24.34;20.31
62524;BME280;53689;56.878;60.672;2023-04-25T11:02:43;98514.91;;;24.03;21.32
62524;BME280;53689;56.878;60.672;2023-04-25T11:05:18;98514.31;;;24.34;19.72
62524;BME280;53689;56.878;60.672;2023-04-25T11:07:50;98514.03;;;24.63;19.62
62524;BME280;53689;56.878;60.672;2023-04-25T11:10:35;98516.53;;;24.78;19.58
62524;BME280;53689;56.878;60.672;2023-04-25T11:13:03;98505.97;;;24.49;21.40
62524;BME280;53689;56.878;60.672;2023-04-25T11:15:31;98510.56;;;24.22;20.53
62524;BME280;53689;56.878;60.672;2023-04-25T11:17:59;98512.00;;;23.97;21.78
62524;BME280;53689;56.878;60.672;2023-04-25T11:20:27;98510.47;;;24.76;19.42
62524;BME280;53689;56.878;60.672;2023-04-25T11:22:57;98508.34;;;24.98;19.29
62524;BME280;53689;56.878;60.672;2023-04-25T11:25:25;98509.44;;;24.84;19.27
62524;BME280;53689;56.878;60.672;2023-04-25T11:27:56;98507.19;;;24.53;19.84
62524;BME280;53689;56.878;60.672;2023-04-25T11:30:25;98503.06;;;24.37;19.80
62524;BME280;53689;56.878;60.672;2023-04-25T11:32:53;98509.13;;;24.26;19.70
62524;BME280;53689;56.878;60.672;2023-04-25T11:35:21;98507.25;;;24.13;19.99
62524;BME280;53689;56.878;60.672;2023-04-25T11:37:49;98513.25;;;24.22;20.35
62524;BME280;53689;56.878;60.672;2023-04-25T11:40:16;98504.91;;;24.03;20.83
62524;BME280;53689;56.878;60.672;2023-04-25T11:42:45;98502.66;;;24.47;19.38
62524;BME280;53689;56.878;60.672;2023-04-25T11:45:15;98504.09;;;23.96;21.07
62524;BME280;53689;56.878;60.672;2023-04-25T11:47:42;98505.16;;;24.35;19.65
62524;BME280;53689;56.878;60.672;2023-04-25T11:50:10;98509.00;;;24.93;18.74
62524;BME280;53689;56.878;60.672;2023-04-25T11:52:38;98513.63;;;25.32;18.21
62524;BME280;53689;56.878;60.672;2023-04-25T11:55:08;98504.44;;;24.80;19.52
62524;BME280;53689;56.878;60.672;2023-04-25T11:57:39;98507.34;;;25.31;19.16
62524;BME280;53689;56.878;60.672;2023-04-25T12:00:11;98507.47;;;25.11;18.47
62524;BME280;53689;56.878;60.672;2023-04-25T12:02:46;98497.97;;;24.82;19.65
62524;BME280;53689;56.878;60.672;2023-04-25T12:05:15;98502.44;;;24.35;21.43
62524;BME280;53689;56.878;60.672;2023-04-25T12:07:57;98503.28;;;24.29;20.55
62524;BME280;53689;56.878;60.672;2023-04-25T12:10:25;98502.38;;;24.56;20.68
62524;BME280;53689;56.878;60.672;2023-04-25T12:12:53;98503.22;;;24.63;19.47
62524;BME280;53689;56.878;60.672;2023-04-25T12:15:24;98493.19;;;24.77;19.04
62524;BME280;53689;56.878;60.672;2023-04-25T12:17:54;98501.53;;;24.69;18.95
62524;BME280;53689;56.878;60.672;2023-04-25T12:20:24;98494.72;;;24.52;21.95
62524;BME280;53689;56.878;60.672;2023-04-25T12:22:52;98491.81;;;24.47;19.88
62524;BME280;53689;56.878;60.672;2023-04-25T12:25:36;98493.25;;;24.57;19.44
62524;BME280;53689;56.878;60.672;2023-04-25T12:28:11;98500.75;;;25.20;18.78
62524;BME280;53689;56.878;60.672;2023-04-25T12:30:56;98497.28;;;25.06;18.83
62524;BME280;53689;56.878;60.672;2023-04-25T12:33:27;98489.88;;;24.68;19.97
62524;BME280;53689;56.878;60.672;2023-04-25T12:35:55;98495.16;;;24.22;21.96
62524;BME280;53689;56.878;60.672;2023-04-25T12:38:23;98495.78;;;24.31;20.68
62524;BME280;53689;56.878;60.672;2023-04-25T12:40:51;98490.19;;;24.06;20.83
62524;BME280;53689;56.878;60.672;2023-04-25T12:43:19;98486.09;;;24.83;19.27
62524;BME280;53689;56.878;60.672;2023-04-25T12:45:48;98486.34;;;24.61;20.31
62524;BME280;53689;56.878;60.672;2023-04-25T12:48:16;98482.81;;;24.60;20.40
62524;BME280;53689;56.878;60.672;2023-04-25T12:50:45;98485.59;;;24.20;21.60
62524;BME280;53689;56.878;60.672;2023-04-25T12:53:13;98480.38;;;24.38;21.13
62524;BME280;53689;56.878;60.672;2023-04-25T12:55:41;98486.78;;;24.58;20.42
62524;BME280;53689;56.878;60.672;2023-04-25T12:58:08;98484.56;;;24.21;21.03
62524;BME280;53689;56.878;60.672;2023-04-25T13:00:36;98491.94;;;24.66;19.99
62524;BME280;53689;56.878;60.672;2023-04-25T13:03:04;98485.44;;;25.01;19.21
62524;BME280;53689;56.878;60.672;2023-04-25T13:05:32;98480.94;;;24.81;19.37
62524;BME280;53689;56.878;60.672;2023-04-25T13:08:01;98485.06;;;24.90;18.85
62524;BME280;53689;56.878;60.672;2023-04-25T13:10:29;98487.16;;;24.75;19.58
62524;BME280;53689;56.878;60.672;2023-04-25T13:12:56;98479.63;;;24.77;19.76
62524;BME280;53689;56.878;60.672;2023-04-25T13:15:24;98472.16;;;24.86;19.12